Time;durP1;ratioP1;P1;durP2;ratioP2;P2;SDS_P1;SDS_P2;PMS_P1;PMS_P2;Temp;Humidity;BMP_temperature;BMP_pressure;BME280_temperature;BME280_humidity;BME280_pressure;Samples;Min_cycle;Max_cycle;Signal;HPM_P1;HPM_P2
2023/05/20 00:01:12;;;;;;;6.25;2.85;;;13.80;58.50;;;;;;5126732;27;20032;-69
2023/05/20 00:03:38;;;;;;;4.32;2.90;;;13.80;58.20;;;;;;5093685;28;20040;-69
2023/05/20 00:06:04;;;;;;;8.50;3.60;;;13.80;58.20;;;;;;5121932;27;20514;-69
2023/05/20 00:08:30;;;;;;;7.45;2.92;;;13.80;58.20;;;;;;5119903;27;20047;-69
2023/05/20 00:10:55;;;;;;;4.97;2.67;;;13.80;58.20;;;;;;5112314;27;20389;-69
2023/05/20 00:13:23;;;;;;;5.63;3.00;;;13.80;58.20;;;;;;5076522;28;20456;-69
2023/05/20 00:15:48;;;;;;;5.50;3.13;;;13.70;58.10;;;;;;5074614;28;20529;-69
2023/05/20 00:18:14;;;;;;;5.25;2.67;;;13.70;58.20;;;;;;5076534;28;20028;-69
2023/05/20 00:20:40;;;;;;;5.68;3.38;;;13.70;58.20;;;;;;5093203;28;20047;-70
2023/05/20 00:23:05;;;;;;;5.65;2.85;;;13.70;58.30;;;;;;5076401;28;20048;-70
2023/05/20 00:25:31;;;;;;;6.93;2.88;;;13.70;58.40;;;;;;5093314;28;20036;-70
2023/05/20 00:27:57;;;;;;;6.80;3.72;;;13.70;58.50;;;;;;5076578;28;20047;-69
2023/05/20 00:30:23;;;;;;;6.70;3.10;;;13.60;58.60;;;;;;5093387;28;20475;-69
2023/05/20 00:32:49;;;;;;;5.43;3.53;;;13.60;58.60;;;;;;5093017;28;20036;-69
2023/05/20 00:35:14;;;;;;;6.10;2.90;;;13.60;58.70;;;;;;5093119;28;20766;-69
2023/05/20 00:37:40;;;;;;;8.57;3.80;;;13.60;58.80;;;;;;5125868;27;20048;-69
2023/05/20 00:40:06;;;;;;;7.63;3.58;;;13.50;58.80;;;;;;5122830;27;20162;-69
2023/05/20 00:42:32;;;;;;;10.10;3.92;;;13.50;58.90;;;;;;5115678;27;20032;-69
2023/05/20 00:44:59;;;;;;;8.05;3.55;;;13.50;59.10;;;;;;5112588;27;20040;-69
2023/05/20 00:47:28;;;;;;;7.03;3.80;;;13.50;59.10;;;;;;5092061;28;20164;-69
2023/05/20 00:49:55;;;;;;;6.70;3.10;;;13.40;59.20;;;;;;5075412;28;20075;-70
2023/05/20 00:52:21;;;;;;;6.47;3.00;;;13.40;59.20;;;;;;5092462;28;20085;-70
2023/05/20 00:54:49;;;;;;;8.27;3.63;;;13.40;59.30;;;;;;5093822;28;20046;-70
2023/05/20 00:57:16;;;;;;;6.72;3.25;;;13.40;59.60;;;;;;5112813;27;20040;-70
2023/05/20 00:59:41;;;;;;;8.07;2.72;;;13.40;59.60;;;;;;5075769;28;20414;-69
2023/05/20 01:02:07;;;;;;;5.85;2.70;;;13.30;59.50;;;;;;5110311;27;20036;-70
2023/05/20 01:04:33;;;;;;;5.90;3.33;;;13.30;59.50;;;;;;5092522;28;20040;-69
2023/05/20 01:07:01;;;;;;;5.47;3.45;;;13.30;59.50;;;;;;5075068;28;20093;-69
2023/05/20 01:09:30;;;;;;;4.68;2.55;;;13.30;59.70;;;;;;5090235;28;20044;-69
2023/05/20 01:12:16;;;;;;;6.55;3.05;;;13.30;59.80;;;;;;5125349;27;20040;-69
2023/05/20 01:15:03;;;;;;;7.05;3.90;;;13.20;59.70;;;;;;5092114;28;20105;-69
2023/05/20 01:17:31;;;;;;;10.75;4.15;;;13.20;59.90;;;;;;5091761;28;20040;-69
2023/05/20 01:19:58;;;;;;;6.93;3.63;;;13.20;59.90;;;;;;5092198;28;20494;-69
2023/05/20 01:22:28;;;;;;;6.75;3.65;;;13.20;60.10;;;;;;5114999;27;20032;-69
2023/05/20 01:24:55;;;;;;;6.82;4.07;;;13.10;60.20;;;;;;5091828;28;20103;-69
2023/05/20 01:27:22;;;;;;;6.68;3.13;;;13.10;60.40;;;;;;5091900;28;20093;-69
2023/05/20 01:29:49;;;;;;;7.35;3.90;;;13.10;60.40;;;;;;5091824;28;20040;-69
2023/05/20 01:32:30;;;;;;;8.95;4.78;;;13.10;60.50;;;;;;5091848;28;20105;-69
2023/05/20 01:34:57;;;;;;;10.95;4.30;;;13.00;61.10;;;;;;5091628;28;20040;-69
2023/05/20 01:37:24;;;;;;;7.30;3.80;;;13.00;61.10;;;;;;5123347;27;20051;-69
2023/05/20 01:39:52;;;;;;;5.82;3.50;;;13.00;61.10;;;;;;5116208;27;20127;-69
2023/05/20 01:42:19;;;;;;;5.60;3.20;;;13.00;61.10;;;;;;5125071;27;20066;-69
2023/05/20 01:44:44;;;;;;;9.27;3.88;;;12.90;61.10;;;;;;5117326;27;20097;-69
2023/05/20 01:47:10;;;;;;;9.00;3.55;;;13.00;61.20;;;;;;5091287;28;20478;-69
2023/05/20 01:49:36;;;;;;;5.97;3.22;;;13.00;61.10;;;;;;5091569;28;20044;-70
2023/05/20 01:52:02;;;;;;;5.38;3.85;;;12.90;61.20;;;;;;5091482;28;20487;-70
2023/05/20 01:54:27;;;;;;;7.75;3.58;;;12.90;61.20;;;;;;5091623;28;20074;-70
2023/05/20 01:56:54;;;;;;;8.80;4.47;;;12.90;61.10;;;;;;5091471;28;20083;-69
2023/05/20 01:59:20;;;;;;;7.60;3.92;;;12.90;61.30;;;;;;5119561;27;20111;-69
2023/05/20 02:01:45;;;;;;;7.25;3.83;;;12.90;61.40;;;;;;5074597;28;20118;-69
2023/05/20 02:04:11;;;;;;;6.65;4.15;;;12.90;61.50;;;;;;5121992;27;20672;-69
2023/05/20 02:06:37;;;;;;;5.93;3.80;;;12.90;61.70;;;;;;5091582;28;20521;-69
2023/05/20 02:09:03;;;;;;;5.72;3.38;;;12.90;61.90;;;;;;5092371;28;20035;-69
2023/05/20 02:11:28;;;;;;;5.00;3.42;;;12.90;61.90;;;;;;5124274;27;20097;-69
2023/05/20 02:13:54;;;;;;;8.48;4.88;;;12.80;61.90;;;;;;5091168;28;20036;-69
2023/05/20 02:16:20;;;;;;;9.38;4.50;;;12.90;62.30;;;;;;5091042;28;20052;-69
2023/05/20 02:18:46;;;;;;;9.75;3.45;;;12.90;62.60;;;;;;5073718;28;20051;-69
2023/05/20 02:21:11;;;;;;;6.55;3.97;;;12.80;62.50;;;;;;5119374;27;20832;-69
2023/05/20 02:23:37;;;;;;;5.82;3.22;;;12.80;62.80;;;;;;5073959;28;20042;-69
2023/05/20 02:26:03;;;;;;;6.07;4.10;;;12.80;62.80;;;;;;5112320;27;20036;-69
2023/05/20 02:28:28;;;;;;;7.28;3.70;;;12.80;62.80;;;;;;5116754;27;20097;-69
2023/05/20 02:30:54;;;;;;;6.57;3.40;;;12.80;63.20;;;;;;5121106;27;20506;-69
2023/05/20 02:33:20;;;;;;;6.95;4.22;;;12.80;63.30;;;;;;5120248;27;20048;-69
2023/05/20 02:35:46;;;;;;;6.82;3.90;;;12.80;63.20;;;;;;5114859;27;20078;-69
2023/05/20 02:38:12;;;;;;;5.65;3.35;;;12.80;63.30;;;;;;5120971;27;20476;-69
2023/05/20 02:40:38;;;;;;;6.78;3.97;;;12.80;63.30;;;;;;5073820;28;20036;-69
2023/05/20 02:43:04;;;;;;;7.35;3.60;;;12.70;63.40;;;;;;5090700;28;20036;-69
2023/05/20 02:45:30;;;;;;;7.60;4.68;;;12.80;63.40;;;;;;5090572;28;20040;-69
2023/05/20 02:47:56;;;;;;;5.68;3.40;;;12.80;63.70;;;;;;5090605;28;20415;-69
2023/05/20 02:50:21;;;;;;;8.40;3.45;;;12.80;63.80;;;;;;5073721;28;20122;-69
2023/05/20 02:52:47;;;;;;;8.10;3.80;;;12.70;63.60;;;;;;5091902;28;20062;-69
2023/05/20 02:55:13;;;;;;;7.03;3.80;;;12.80;63.70;;;;;;5056690;28;20036;-69
2023/05/20 02:57:39;;;;;;;6.43;3.75;;;12.70;63.50;;;;;;5090807;28;20071;-69
2023/05/20 03:00:06;;;;;;;8.38;3.30;;;12.70;63.40;;;;;;5073755;28;20036;-69
2023/05/20 03:02:33;;;;;;;6.38;3.50;;;12.70;63.50;;;;;;5090706;28;20483;-69
2023/05/20 03:04:58;;;;;;;5.95;3.35;;;12.70;63.40;;;;;;5090576;28;20081;-69
2023/05/20 03:07:24;;;;;;;6.07;3.30;;;12.70;63.60;;;;;;5090443;28;20039;-69
2023/05/20 03:09:50;;;;;;;5.10;3.60;;;12.70;63.60;;;;;;5123540;28;20093;-69
2023/05/20 03:12:16;;;;;;;6.63;3.10;;;12.70;63.50;;;;;;5073959;28;20407;-69
2023/05/20 03:14:42;;;;;;;5.60;3.20;;;12.70;63.40;;;;;;5090195;28;20050;-69
2023/05/20 03:17:09;;;;;;;6.90;3.13;;;12.70;63.30;;;;;;5073426;28;20044;-69
2023/05/20 03:19:35;;;;;;;6.28;3.05;;;12.70;63.20;;;;;;5090206;28;20127;-69
2023/05/20 03:22:01;;;;;;;6.07;3.05;;;12.70;63.30;;;;;;5089935;28;20165;-69
2023/05/20 03:24:27;;;;;;;6.95;3.92;;;12.70;63.50;;;;;;5114688;28;20072;-69
2023/05/20 03:26:54;;;;;;;6.72;3.83;;;12.70;63.70;;;;;;5089648;28;20039;-69
2023/05/20 03:29:22;;;;;;;7.55;4.20;;;12.70;63.60;;;;;;5122368;27;20144;-69
2023/05/20 03:31:48;;;;;;;6.00;3.15;;;12.70;63.80;;;;;;5091768;28;20388;-70
2023/05/20 03:34:13;;;;;;;7.00;3.42;;;12.70;63.80;;;;;;5094045;28;20047;-69
2023/05/20 03:36:40;;;;;;;5.50;3.42;;;12.70;63.90;;;;;;5075202;28;20128;-69
2023/05/20 03:39:05;;;;;;;7.15;4.00;;;12.70;63.90;;;;;;5125327;27;20457;-69
2023/05/20 03:41:31;;;;;;;5.32;3.53;;;12.70;64.20;;;;;;5120828;27;20120;-69
2023/05/20 03:43:57;;;;;;;4.47;2.85;;;12.70;64.10;;;;;;5094186;28;20028;-69
2023/05/20 03:46:23;;;;;;;5.15;3.53;;;12.70;63.90;;;;;;5076833;28;20487;-69
2023/05/20 03:48:48;;;;;;;5.47;3.28;;;12.70;63.80;;;;;;5121085;27;20136;-69
2023/05/20 03:51:14;;;;;;;7.22;3.47;;;12.70;63.90;;;;;;5117707;27;20487;-69
2023/05/20 03:53:40;;;;;;;5.65;3.03;;;12.70;63.80;;;;;;5120890;27;20089;-69
2023/05/20 03:56:05;;;;;;;6.60;3.50;;;12.70;63.70;;;;;;5124184;27;20038;-69
2023/05/20 03:58:31;;;;;;;5.63;3.53;;;12.70;63.80;;;;;;5124236;27;20036;-69
2023/05/20 04:00:57;;;;;;;6.97;3.55;;;12.70;63.80;;;;;;5094884;28;20105;-69
2023/05/20 04:03:23;;;;;;;7.07;3.70;;;12.70;63.90;;;;;;5076893;28;20040;-69
2023/05/20 04:05:49;;;;;;;7.90;3.70;;;12.70;64.00;;;;;;5076744;28;20047;-69
2023/05/20 04:08:15;;;;;;;4.95;3.28;;;12.60;64.00;;;;;;5093397;28;20096;-69
2023/05/20 04:10:41;;;;;;;4.65;2.75;;;12.60;64.10;;;;;;5093306;28;20052;-69
2023/05/20 04:13:07;;;;;;;5.38;3.40;;;12.60;64.00;;;;;;5125625;27;20040;-69
2023/05/20 04:15:37;;;;;;;7.07;2.97;;;12.60;64.00;;;;;;5125250;27;20052;-69
2023/05/20 04:18:06;;;;;;;4.90;3.35;;;12.70;64.10;;;;;;5091172;28;20080;-69
2023/05/20 04:20:32;;;;;;;5.03;3.08;;;12.60;64.10;;;;;;5093159;28;20043;-69
2023/05/20 04:22:58;;;;;;;6.53;3.05;;;12.60;64.20;;;;;;5092981;28;20036;-69
2023/05/20 04:25:24;;;;;;;10.05;4.22;;;12.60;64.30;;;;;;5073716;28;20077;-69
2023/05/20 04:27:52;;;;;;;5.82;3.08;;;12.60;64.50;;;;;;5123593;27;20445;-69
2023/05/20 04:30:20;;;;;;;4.15;3.03;;;12.60;64.50;;;;;;5112192;27;20036;-69
2023/05/20 04:32:47;;;;;;;9.10;3.75;;;12.70;64.90;;;;;;5094158;28;20507;-69
2023/05/20 04:35:13;;;;;;;8.77;4.40;;;12.60;65.00;;;;;;5092862;28;20494;-69
2023/05/20 04:37:41;;;;;;;11.23;4.05;;;12.60;65.30;;;;;;5117128;27;20057;-69
2023/05/20 04:40:08;;;;;;;8.07;4.07;;;12.60;65.60;;;;;;5092437;28;20052;-69
2023/05/20 04:42:34;;;;;;;5.22;3.30;;;12.60;65.80;;;;;;5092065;28;20044;-69
2023/05/20 04:45:00;;;;;;;6.18;3.65;;;12.60;66.10;;;;;;5092959;28;20574;-69
2023/05/20 04:47:30;;;;;;;9.48;4.00;;;12.60;66.40;;;;;;5076122;28;20035;-69
2023/05/20 04:49:56;;;;;;;5.50;3.70;;;12.60;66.60;;;;;;5075910;28;20043;-69
2023/05/20 04:52:26;;;;;;;6.80;3.30;;;12.60;66.60;;;;;;5117543;27;20054;-69
2023/05/20 04:54:52;;;;;;;7.50;3.85;;;12.50;66.80;;;;;;5092894;28;20036;-69
2023/05/20 04:57:20;;;;;;;6.07;3.20;;;12.50;67.10;;;;;;5092442;28;20380;-69
2023/05/20 04:59:46;;;;;;;9.18;3.33;;;12.50;67.10;;;;;;5115665;27;20047;-69
2023/05/20 05:02:13;;;;;;;5.55;3.30;;;12.50;67.20;;;;;;5122637;27;20491;-69
2023/05/20 05:04:39;;;;;;;4.45;3.20;;;12.50;67.40;;;;;;5092673;28;20032;-69
2023/05/20 05:07:05;;;;;;;5.15;3.42;;;12.50;67.60;;;;;;5075414;28;20047;-69
2023/05/20 05:09:30;;;;;;;7.25;3.45;;;12.50;67.50;;;;;;5092479;28;20487;-69
2023/05/20 05:11:56;;;;;;;7.40;3.75;;;12.50;67.70;;;;;;5092627;28;20050;-69
2023/05/20 05:14:22;;;;;;;6.55;3.15;;;12.50;67.90;;;;;;5092335;28;20502;-69
2023/05/20 05:16:48;;;;;;;6.18;2.85;;;12.50;68.00;;;;;;5075571;28;20039;-70
2023/05/20 05:19:14;;;;;;;5.90;2.70;;;12.50;67.90;;;;;;5092278;28;20064;-69
2023/05/20 05:21:40;;;;;;;5.70;3.05;;;12.50;68.30;;;;;;5092204;28;20094;-69
2023/05/20 05:24:06;;;;;;;5.90;2.75;;;12.50;67.90;;;;;;5122703;27;20036;-69
2023/05/20 05:26:32;;;;;;;5.57;2.83;;;12.50;68.10;;;;;;5109747;27;20040;-67
2023/05/20 05:28:58;;;;;;;5.35;2.80;;;12.50;68.00;;;;;;5091719;28;20047;-67
2023/05/20 05:31:24;;;;;;;7.50;2.70;;;12.60;68.20;;;;;;5091819;28;20036;-67
2023/05/20 05:33:49;;;;;;;5.53;3.10;;;12.60;68.30;;;;;;5091739;28;20084;-67
2023/05/20 05:36:16;;;;;;;5.35;2.50;;;12.60;68.40;;;;;;5123430;27;20036;-67
2023/05/20 05:38:43;;;;;;;5.82;2.45;;;12.70;68.40;;;;;;5091336;28;20058;-67
2023/05/20 05:41:08;;;;;;;7.47;2.72;;;12.70;68.30;;;;;;5124966;27;20036;-67
2023/05/20 05:43:34;;;;;;;6.90;2.80;;;12.80;68.30;;;;;;5117958;27;20125;-67
2023/05/20 05:46:00;;;;;;;3.63;2.10;;;12.80;68.30;;;;;;5074442;28;20079;-66
2023/05/20 05:48:26;;;;;;;3.40;2.35;;;13.00;68.50;;;;;;5074499;28;20072;-66
2023/05/20 05:50:52;;;;;;;5.35;2.20;;;13.20;68.40;;;;;;5124598;27;20040;-66
2023/05/20 05:53:18;;;;;;;5.05;2.50;;;13.50;67.90;;;;;;5119685;27;20094;-66
2023/05/20 05:55:45;;;;;;;4.55;2.20;;;13.80;67.30;;;;;;5091364;28;20040;-66
2023/05/20 05:58:11;;;;;;;5.53;1.80;;;14.10;66.20;;;;;;5091385;28;20075;-66
2023/05/20 06:00:37;;;;;;;5.70;2.25;;;14.40;65.30;;;;;;5124456;27;20046;-66
2023/05/20 06:03:03;;;;;;;4.03;2.00;;;14.60;63.60;;;;;;5121255;27;20044;-68
2023/05/20 06:05:31;;;;;;;6.03;2.40;;;14.90;63.00;;;;;;5057798;28;20031;-67
2023/05/20 06:07:56;;;;;;;3.53;2.10;;;15.00;62.10;;;;;;5104114;28;20040;-67
2023/05/20 06:10:22;;;;;;;4.60;2.05;;;15.30;61.70;;;;;;5090382;28;20127;-67
2023/05/20 06:12:48;;;;;;;3.78;2.22;;;15.50;60.80;;;;;;5090777;28;20437;-67
2023/05/20 06:15:14;;;;;;;5.03;1.77;;;15.60;59.70;;;;;;5120390;27;20451;-67
2023/05/20 06:17:39;;;;;;;5.07;1.88;;;15.80;59.20;;;;;;5090536;28;20047;-67
2023/05/20 06:20:06;;;;;;;5.78;1.88;;;15.90;58.70;;;;;;5073420;28;20096;-67
2023/05/20 06:22:32;;;;;;;3.63;2.17;;;16.10;58.60;;;;;;5090465;28;20036;-67
2023/05/20 06:24:59;;;;;;;4.20;1.77;;;16.30;58.00;;;;;;5108984;27;20032;-67
2023/05/20 06:27:26;;;;;;;3.85;1.75;;;16.50;56.60;;;;;;5074107;28;20050;-67
2023/05/20 06:29:51;;;;;;;2.95;1.50;;;16.60;56.20;;;;;;5102900;27;20048;-67
2023/05/20 06:32:17;;;;;;;3.65;1.80;;;16.80;55.50;;;;;;5111608;27;20051;-67
2023/05/20 06:34:44;;;;;;;5.95;1.90;;;16.90;54.50;;;;;;5073545;28;20387;-67
2023/05/20 06:37:10;;;;;;;3.47;1.90;;;17.00;54.10;;;;;;5123679;27;20048;-67
2023/05/20 06:39:36;;;;;;;4.32;2.00;;;17.20;53.50;;;;;;5056944;28;20082;-67
2023/05/20 06:42:02;;;;;;;4.75;1.83;;;17.30;53.20;;;;;;5072094;28;20068;-67
2023/05/20 06:44:28;;;;;;;3.42;1.55;;;17.40;53.20;;;;;;5118637;27;20055;-67
2023/05/20 06:46:54;;;;;;;6.40;1.90;;;17.50;53.50;;;;;;5073783;28;20036;-67
2023/05/20 06:49:19;;;;;;;4.22;2.00;;;17.70;53.00;;;;;;5090088;28;20042;-67
2023/05/20 06:51:45;;;;;;;3.28;1.63;;;17.90;53.10;;;;;;5074180;28;20127;-67
2023/05/20 06:54:11;;;;;;;4.95;1.83;;;18.20;52.10;;;;;;5074736;28;20479;-67
2023/05/20 06:56:36;;;;;;;4.35;1.70;;;18.40;51.90;;;;;;5102105;28;20044;-67
2023/05/20 06:59:02;;;;;;;3.33;1.33;;;18.60;51.00;;;;;;5090159;28;20032;-67
2023/05/20 07:01:28;;;;;;;4.43;1.88;;;18.80;49.80;;;;;;5122293;28;20111;-65
2023/05/20 07:03:53;;;;;;;4.95;1.60;;;18.90;49.80;;;;;;5124947;27;20390;-66
2023/05/20 07:06:19;;;;;;;5.72;1.88;;;19.10;49.00;;;;;;5122824;27;20583;-67
2023/05/20 07:08:45;;;;;;;6.10;1.70;;;19.20;49.60;;;;;;5094401;28;20051;-67
2023/05/20 07:11:11;;;;;;;3.17;1.63;;;19.40;49.00;;;;;;5126503;27;20126;-67
2023/05/20 07:13:36;;;;;;;3.75;1.80;;;19.60;48.70;;;;;;5118108;27;20394;-67
2023/05/20 07:16:02;;;;;;;4.32;1.80;;;19.70;48.20;;;;;;5112078;27;20036;-67
2023/05/20 07:18:28;;;;;;;2.60;1.48;;;19.80;47.40;;;;;;5094232;28;20039;-67
2023/05/20 07:20:55;;;;;;;3.08;2.00;;;19.80;46.90;;;;;;5124607;27;20077;-67
2023/05/20 07:23:22;;;;;;;3.25;1.42;;;19.80;46.60;;;;;;5077665;28;20051;-67
2023/05/20 07:25:48;;;;;;;3.67;1.73;;;19.90;47.50;;;;;;5125770;27;20070;-67
2023/05/20 07:28:16;;;;;;;3.38;2.00;;;20.00;47.60;;;;;;5091560;28;20047;-66
2023/05/20 07:30:48;;;;;;;2.83;1.85;;;20.10;47.00;;;;;;5094231;28;20556;-66
2023/05/20 07:33:15;;;;;;;3.38;2.03;;;20.30;46.30;;;;;;5093798;28;20577;-66
2023/05/20 07:35:42;;;;;;;3.63;1.60;;;20.30;44.90;;;;;;5126260;27;20044;-66
2023/05/20 07:38:07;;;;;;;4.38;1.55;;;20.30;45.20;;;;;;5093506;28;20055;-67
2023/05/20 07:40:35;;;;;;;4.10;1.88;;;20.40;45.40;;;;;;5076038;28;20040;-66
2023/05/20 07:43:01;;;;;;;5.22;2.00;;;20.40;45.20;;;;;;5093109;28;20097;-66
2023/05/20 07:45:27;;;;;;;4.03;1.63;;;20.50;44.10;;;;;;5093455;28;20032;-66
2023/05/20 07:47:52;;;;;;;4.15;1.50;;;20.50;44.40;;;;;;5093537;28;20047;-66
2023/05/20 07:50:18;;;;;;;2.95;1.70;;;20.50;44.20;;;;;;5076488;28;20097;-67
2023/05/20 07:52:44;;;;;;;3.25;1.58;;;20.60;43.90;;;;;;5076006;28;20047;-66
2023/05/20 07:55:10;;;;;;;4.15;1.60;;;20.60;43.80;;;;;;5116643;27;20040;-66
2023/05/20 07:57:35;;;;;;;2.38;1.10;;;20.70;44.00;;;;;;5093041;28;20496;-66
2023/05/20 08:00:01;;;;;;;4.55;1.50;;;20.80;44.50;;;;;;5123765;27;20032;-66
2023/05/20 08:02:27;;;;;;;5.50;1.90;;;20.90;43.20;;;;;;5093304;28;20036;-66
2023/05/20 08:04:53;;;;;;;3.92;1.48;;;21.00;43.50;;;;;;5076776;28;20097;-67
2023/05/20 08:07:19;;;;;;;4.97;2.15;;;21.00;42.80;;;;;;5114195;27;20036;-67
2023/05/20 08:09:44;;;;;;;2.53;1.40;;;21.00;42.80;;;;;;5092692;28;20048;-67
2023/05/20 08:12:10;;;;;;;7.43;1.90;;;21.00;42.90;;;;;;5125360;27;20127;-67
2023/05/20 08:14:36;;;;;;;2.65;1.67;;;20.90;42.30;;;;;;5075998;28;20055;-67
2023/05/20 08:17:02;;;;;;;3.78;1.88;;;20.80;42.10;;;;;;5092340;28;20039;-67
2023/05/20 08:19:28;;;;;;;6.55;2.10;;;20.70;42.10;;;;;;5112673;27;20043;-67
2023/05/20 08:21:53;;;;;;;5.07;1.90;;;20.60;41.90;;;;;;5093131;28;20382;-67
2023/05/20 08:24:19;;;;;;;4.40;1.65;;;20.50;42.50;;;;;;5076466;28;20471;-67
2023/05/20 08:26:45;;;;;;;3.65;1.60;;;20.40;42.30;;;;;;5092960;28;20072;-67
2023/05/20 08:29:10;;;;;;;2.45;1.67;;;20.40;43.70;;;;;;5092490;28;20047;-67
2023/05/20 08:31:36;;;;;;;3.28;1.50;;;20.50;43.90;;;;;;5087610;28;20052;-67
2023/05/20 08:34:02;;;;;;;3.35;1.55;;;20.50;43.40;;;;;;5070541;28;20387;-67
2023/05/20 08:36:27;;;;;;;3.75;1.90;;;20.60;42.90;;;;;;5053556;28;20043;-67
2023/05/20 08:38:54;;;;;;;2.70;1.92;;;20.70;42.80;;;;;;5069784;28;20591;-67
2023/05/20 08:41:21;;;;;;;5.80;1.90;;;20.70;42.80;;;;;;5120001;27;20112;-67
2023/05/20 08:43:49;;;;;;;2.53;1.52;;;20.70;42.60;;;;;;5102598;28;20097;-67
2023/05/20 08:46:15;;;;;;;4.35;1.98;;;20.80;42.20;;;;;;5120156;27;21357;-67
2023/05/20 08:48:41;;;;;;;2.72;1.70;;;20.90;42.20;;;;;;5119028;27;20101;-67
2023/05/20 08:51:10;;;;;;;5.50;1.60;;;20.90;41.30;;;;;;5086699;28;20036;-67
2023/05/20 08:53:35;;;;;;;4.32;1.73;;;21.00;41.80;;;;;;5087618;28;20059;-67
2023/05/20 08:56:02;;;;;;;2.88;1.80;;;20.90;41.00;;;;;;5119476;27;20043;-67
2023/05/20 08:58:34;;;;;;;5.60;1.80;;;20.70;41.30;;;;;;5069675;28;20079;-67
2023/05/20 09:01:00;;;;;;;2.63;1.60;;;20.70;43.00;;;;;;5086825;28;20050;-67
2023/05/20 09:03:26;;;;;;;5.80;1.85;;;20.70;43.00;;;;;;5119025;27;20139;-67
2023/05/20 09:05:53;;;;;;;4.25;1.80;;;20.80;42.50;;;;;;5119214;27;20138;-68
2023/05/20 09:08:23;;;;;;;5.97;1.60;;;20.80;43.20;;;;;;5118986;27;20032;-67
2023/05/20 09:10:52;;;;;;;6.60;1.98;;;20.80;42.40;;;;;;5086478;28;20056;-67
2023/05/20 09:13:17;;;;;;;3.05;1.98;;;20.90;41.60;;;;;;5118680;27;20043;-67
2023/05/20 09:15:43;;;;;;;4.53;2.08;;;20.90;42.40;;;;;;5102625;28;20048;-67
2023/05/20 09:18:10;;;;;;;3.90;1.80;;;21.00;42.00;;;;;;5115229;27;20102;-67
2023/05/20 09:20:37;;;;;;;4.88;2.00;;;21.00;42.30;;;;;;5121136;27;20047;-67
2023/05/20 09:23:05;;;;;;;4.32;1.67;;;21.10;41.00;;;;;;5068538;28;20122;-67
2023/05/20 09:25:31;;;;;;;4.32;1.75;;;21.10;41.60;;;;;;5115837;27;20093;-69
2023/05/20 09:27:57;;;;;;;4.00;1.52;;;21.10;41.50;;;;;;5085592;28;20044;-69
2023/05/20 09:30:24;;;;;;;4.25;1.80;;;21.10;41.10;;;;;;5114459;27;20040;-69
2023/05/20 09:32:57;;;;;;;4.78;1.98;;;21.10;40.70;;;;;;5118087;27;20063;-69
2023/05/20 09:35:23;;;;;;;3.30;1.70;;;21.10;40.70;;;;;;5086995;28;20450;-69
2023/05/20 09:37:54;;;;;;;4.65;1.90;;;21.10;41.60;;;;;;5113576;27;20459;-69
2023/05/20 09:40:28;;;;;;;5.32;2.35;;;21.10;41.50;;;;;;5086919;28;20044;-69
2023/05/20 09:43:06;;;;;;;2.67;1.60;;;21.20;41.00;;;;;;5085681;28;20040;-69
2023/05/20 09:45:32;;;;;;;4.65;2.17;;;21.20;42.20;;;;;;5098536;28;20032;-69
2023/05/20 09:48:00;;;;;;;5.65;2.00;;;21.30;41.60;;;;;;5085536;28;20696;-69
2023/05/20 09:50:27;;;;;;;3.60;1.88;;;21.30;41.40;;;;;;5085984;28;20420;-70
2023/05/20 09:52:54;;;;;;;2.80;1.88;;;21.30;41.50;;;;;;5114773;27;20127;-69
2023/05/20 09:55:22;;;;;;;3.80;2.20;;;21.30;41.40;;;;;;5074420;28;20040;-69
2023/05/20 09:57:47;;;;;;;3.90;2.20;;;21.30;41.70;;;;;;5116601;27;20553;-70
2023/05/20 10:00:18;;;;;;;4.07;2.20;;;21.30;41.50;;;;;;5091075;28;20040;-69
2023/05/20 10:02:46;;;;;;;4.93;2.10;;;21.20;41.70;;;;;;5112739;27;20082;-69
2023/05/20 10:05:38;;;;;;;5.68;1.98;;;21.20;41.60;;;;;;5079728;28;20033;-68
2023/05/20 10:08:23;;;;;;;4.95;2.05;;;21.20;41.80;;;;;;5079362;28;20058;-69
2023/05/20 10:11:11;;;;;;;4.07;1.70;;;21.30;41.80;;;;;;5064825;28;20035;-70
2023/05/20 10:14:06;;;;;;;3.75;1.73;;;21.30;40.40;;;;;;5066630;28;20040;-69
2023/05/20 10:16:57;;;;;;;4.20;1.70;;;21.20;39.70;;;;;;5104760;28;20076;-69
2023/05/20 10:19:33;;;;;;;3.22;1.80;;;21.20;41.10;;;;;;5090972;28;20412;-69
2023/05/20 10:22:10;;;;;;;3.33;2.17;;;21.20;40.90;;;;;;5087968;28;20074;-70
2023/05/20 10:24:45;;;;;;;4.43;2.05;;;21.20;41.00;;;;;;5073992;28;20036;-70
2023/05/20 10:27:16;;;;;;;4.97;1.65;;;21.20;39.60;;;;;;5090421;28;20470;-70
2023/05/20 10:30:00;;;;;;;3.00;1.92;;;21.10;40.30;;;;;;5089901;28;20036;-70
2023/05/20 10:32:27;;;;;;;3.50;1.80;;;21.10;39.00;;;;;;5073231;28;20067;-69
2023/05/20 10:34:58;;;;;;;4.22;1.67;;;20.90;38.80;;;;;;5092635;28;20129;-70
2023/05/20 10:37:26;;;;;;;4.35;1.55;;;20.70;38.40;;;;;;5090046;28;20042;-69
2023/05/20 10:40:05;;;;;;;4.05;1.67;;;20.60;39.10;;;;;;5072895;28;20109;-69
2023/05/20 10:42:31;;;;;;;6.35;1.92;;;20.40;38.90;;;;;;5114423;27;20040;-69
2023/05/20 10:44:57;;;;;;;5.57;1.67;;;20.40;39.60;;;;;;5074018;28;20042;-69
2023/05/20 10:47:23;;;;;;;2.85;1.60;;;20.30;39.60;;;;;;5108848;28;20391;-69
2023/05/20 10:49:48;;;;;;;2.75;1.60;;;20.30;40.20;;;;;;5094151;28;20043;-70
2023/05/20 10:52:16;;;;;;;4.75;1.83;;;20.30;39.50;;;;;;5122933;27;20101;-69
2023/05/20 10:54:47;;;;;;;4.57;1.73;;;20.30;40.20;;;;;;5087859;28;20127;-69
2023/05/20 10:57:13;;;;;;;2.97;1.52;;;20.30;40.20;;;;;;5113806;28;20074;-70
2023/05/20 10:59:40;;;;;;;4.68;2.10;;;20.50;40.40;;;;;;5091904;28;20048;-69
2023/05/20 11:02:08;;;;;;;2.90;1.40;;;20.60;39.10;;;;;;5113425;28;20071;-69
2023/05/20 11:04:34;;;;;;;3.60;1.60;;;20.50;38.80;;;;;;5071171;28;20032;-70
2023/05/20 11:07:00;;;;;;;2.95;1.67;;;20.60;39.40;;;;;;5078112;28;20059;-70
2023/05/20 11:09:26;;;;;;;6.10;1.98;;;20.50;39.10;;;;;;5112829;28;20044;-69
2023/05/20 11:11:54;;;;;;;5.45;1.60;;;20.50;39.40;;;;;;5080767;28;20040;-70
2023/05/20 11:14:21;;;;;;;6.60;1.90;;;20.50;39.10;;;;;;5062306;28;20093;-69
2023/05/20 11:16:51;;;;;;;4.13;2.00;;;20.40;39.70;;;;;;5078548;28;20024;-69
2023/05/20 11:19:20;;;;;;;2.92;1.98;;;20.30;40.20;;;;;;5061791;28;20072;-69
2023/05/20 11:21:46;;;;;;;3.15;1.50;;;20.30;40.70;;;;;;5111206;28;20047;-69
2023/05/20 11:24:13;;;;;;;4.25;1.67;;;20.30;40.20;;;;;;5111107;28;20051;-69
2023/05/20 11:26:39;;;;;;;5.95;1.70;;;20.30;40.00;;;;;;5110836;28;20045;-69
2023/05/20 11:29:05;;;;;;;6.00;1.80;;;20.30;40.20;;;;;;5111829;28;20111;-69
2023/05/20 11:31:31;;;;;;;3.72;1.80;;;20.30;39.80;;;;;;5111390;28;20522;-69
2023/05/20 11:34:01;;;;;;;3.80;1.70;;;20.20;39.90;;;;;;5063179;28;20059;-69
2023/05/20 11:36:27;;;;;;;2.53;1.55;;;20.20;40.00;;;;;;5115691;28;20032;-69
2023/05/20 11:38:55;;;;;;;5.72;1.92;;;20.20;40.50;;;;;;5116719;28;20064;-70
2023/05/20 11:41:25;;;;;;;4.75;1.35;;;20.30;40.80;;;;;;5115738;28;20193;-69
2023/05/20 11:43:56;;;;;;;4.55;1.63;;;20.20;39.40;;;;;;5116575;28;20109;-69
2023/05/20 11:46:22;;;;;;;3.53;1.33;;;20.20;39.90;;;;;;5067495;28;20418;-69
2023/05/20 11:48:55;;;;;;;5.15;1.60;;;20.20;39.90;;;;;;5089667;28;20088;-69
2023/05/20 11:51:26;;;;;;;3.28;1.50;;;20.20;39.40;;;;;;5092837;28;20146;-69
2023/05/20 11:53:52;;;;;;;5.40;1.80;;;20.10;39.40;;;;;;5122264;27;20111;-69
2023/05/20 11:56:19;;;;;;;4.68;1.65;;;20.10;40.40;;;;;;5091154;28;20127;-70
2023/05/20 11:58:44;;;;;;;4.90;1.98;;;20.10;40.50;;;;;;5095792;28;20094;-69
2023/05/20 12:01:10;;;;;;;5.97;1.55;;;20.10;40.40;;;;;;5074969;28;20407;-70
2023/05/20 12:03:36;;;;;;;3.20;1.65;;;20.00;40.40;;;;;;5069348;28;20040;-69
2023/05/20 12:06:02;;;;;;;4.28;1.50;;;20.10;40.30;;;;;;5069854;28;20028;-70
2023/05/20 12:08:28;;;;;;;4.35;1.50;;;20.10;41.20;;;;;;5119356;27;20055;-70
2023/05/20 12:10:54;;;;;;;6.82;1.60;;;20.20;40.50;;;;;;5102855;28;20063;-70
2023/05/20 12:13:22;;;;;;;4.78;1.50;;;20.30;41.40;;;;;;5087961;28;20042;-70
2023/05/20 12:15:47;;;;;;;4.70;1.70;;;20.30;41.40;;;;;;5118856;27;20055;-69
2023/05/20 12:18:13;;;;;;;5.60;1.95;;;20.40;41.70;;;;;;5086999;28;20048;-69
2023/05/20 12:20:39;;;;;;;6.10;2.00;;;20.50;40.50;;;;;;5120371;27;20040;-69
2023/05/20 12:23:05;;;;;;;3.95;1.85;;;20.60;40.80;;;;;;5118470;27;20474;-69
2023/05/20 12:25:31;;;;;;;4.07;1.50;;;20.60;41.50;;;;;;5119045;27;20043;-69
2023/05/20 12:27:57;;;;;;;5.18;1.55;;;20.70;42.60;;;;;;5103536;28;20032;-70
2023/05/20 12:30:23;;;;;;;3.17;1.98;;;20.90;40.90;;;;;;5118566;27;20043;-70
2023/05/20 12:32:50;;;;;;;5.18;2.00;;;21.00;41.50;;;;;;5069721;28;20046;-70
2023/05/20 12:35:16;;;;;;;3.17;1.15;;;21.10;40.90;;;;;;5117329;27;20050;-69
2023/05/20 12:37:43;;;;;;;5.03;1.65;;;21.10;40.30;;;;;;5119531;27;20242;-69
2023/05/20 12:40:10;;;;;;;3.33;1.70;;;21.20;39.50;;;;;;5118748;27;20487;-69
2023/05/20 12:42:40;;;;;;;4.55;1.60;;;21.20;40.20;;;;;;5118704;27;20032;-69
2023/05/20 12:45:08;;;;;;;3.13;1.55;;;21.20;40.50;;;;;;5119199;27;20081;-69